• Join FlightAware (Why Join?)
  • Login
  • US Flag 
03:43PM EDT


 

Airport Tracker/Info


-or-


 

Live Flight TrackerFlight Track Log ✈ N899B ✈ 09-May-2013 ✈ KGKJ - KTRI

Flight Track Log - Related Links

Times and Time Zones

All times are in EDT time to prevent confusion due to time zone crossing. See the N899B flight status page for this flight to view local times or setup timezone preferences in your user account.

Time Position Orientation Groundspeed Altitude Reporting Facility
EDT Latitude Longitude Course Direction KTS MPH feet Rate Location/Type
05:52AM 41.1818 -80.5095 209° Southwest  Level FlightAware Approximate
05:52AM 41.6717 -80.2078 209° Southwest 368 423 6,100  Level Cleveland Center
05:53AM 41.6133 -80.2469 207° Southwest 276 318 8,900 2,700 Climbing Cleveland Center
05:54AM 41.5531 -80.2944 211° Southwest 247 284 11,600 2,460 Climbing Cleveland Center
05:55AM 41.4844 -80.3419 207° Southwest 266 306 13,900 2,220 Climbing Cleveland Center
05:56AM 41.4200 -80.3864 207° Southwest 287 330 16,100 2,160 Climbing Cleveland Center
05:57AM 41.3428 -80.4422 208° Southwest 307 353 18,300 2,100 Climbing Cleveland Center
05:58AM 41.2594 -80.5003 208° Southwest 307 353 20,300 1,980 Climbing Cleveland Center
05:59AM 41.1783 -80.5556 207° Southwest 313 360 22,300 1,920 Climbing Cleveland Center
06:00AM 41.0969 -80.6106 207° Southwest 319 367 24,200 1,920 Climbing Cleveland Center
06:01AM 41.0156 -80.6683 208° Southwest 324 373 26,200 1,920 Climbing Cleveland Center
06:02AM 40.9364 -80.7233 208° Southwest 324 373 28,100 1,680 Climbing Cleveland Center
06:03AM 40.8550 -80.7781 207° Southwest 324 373 29,600 1,440 Climbing Cleveland Center
06:04AM 40.7778 -80.8300 207° Southwest 329 379 31,000 1,260 Climbing Cleveland Center
06:05AM 40.6922 -80.8897 208° Southwest 334 384 32,200 1,080 Climbing Cleveland Center
06:06AM 40.6044 -80.9522 208° Southwest 344 396 33,200 1,020 Climbing Cleveland Center
06:08AM 40.3892 -81.0986 207° Southwest 372 428 35,600 1,020 Climbing Indianapolis Center
06:09AM 40.2958 -81.1611 207° Southwest 371 427 36,600 840 Climbing Indianapolis Center
06:10AM 40.2042 -81.2236 208° Southwest 368 423 37,400 720 Climbing Indianapolis Center
06:11AM 40.1117 -81.2867 208° Southwest 370 426 38,100 660 Climbing Indianapolis Center
06:12AM 40.0203 -81.3481 207° Southwest 368 423 38,800 540 Climbing Indianapolis Center
06:13AM 39.9425 -81.3992 207° Southwest 367 422 39,200 480 Climbing Indianapolis Center
06:14AM 39.8453 -81.4650 207° Southwest 369 425 39,800 360 Climbing Indianapolis Center
06:15AM 39.7536 -81.5264 207° Southwest 367 422 40,000 60 Climbing Indianapolis Center
06:16AM 39.6478 -81.5956 207° Southwest 379 436 40,000  Level Indianapolis Center
06:17AM 39.5533 -81.6586 207° Southwest 380 437 40,000  Level Indianapolis Center
06:18AM 39.4608 -81.7206 207° Southwest 376 433 40,000  Level Indianapolis Center
06:19AM 39.3667 -81.7825 207° Southwest 379 436 40,000  Level Indianapolis Center
06:20AM 39.2742 -81.8425 207° Southwest 374 430 40,000  Level Indianapolis Center
06:21AM 39.1808 -81.9031 207° Southwest 376 433 40,000  Level Indianapolis Center
06:22AM 39.0894 -81.9633 207° Southwest 373 429 40,000  Level Indianapolis Center
06:23AM 38.9967 -82.0236 207° Southwest 375 432 40,000  Level Indianapolis Center
06:24AM 38.9036 -82.0831 206° Southwest 375 432 40,000  Level Indianapolis Center
06:25AM 38.8111 -82.1436 207° Southwest 375 432 40,000  Level Indianapolis Center
06:27AM 38.7178 -82.2028 206° Southwest 375 432 40,000  Level Indianapolis Center
06:28AM 38.6242 -82.2636 207° Southwest 378 435 40,000  Level Indianapolis Center
06:29AM 38.5297 -82.3242 207° Southwest 380 437 40,000  Level Indianapolis Center
06:30AM 38.4356 -82.3844 207° Southwest 379 436 40,000  Level Indianapolis Center
06:31AM 38.3417 -82.4456 207° Southwest 380 437 40,000  Level Indianapolis Center
06:32AM 38.2353 -82.5111 206° Southwest 378 435 40,000  Level Indianapolis Center
06:33AM 38.1408 -82.5697 206° Southwest 376 433 40,000  Level Indianapolis Center
06:34AM 38.0469 -82.6317 207° Southwest 378 435 40,000  Level Indianapolis Center
06:35AM 37.9511 -82.6911 206° Southwest 381 438 40,000  Level Indianapolis Center
06:36AM 37.8572 -82.7506 207° Southwest 379 436 40,000  Level Indianapolis Center
06:37AM 37.7633 -82.8089 206° Southwest 377 434 40,000 -180 Level Indianapolis Center
06:38AM 37.6678 -82.8675 206° Southwest 379 436 39,700 -660 Descending Indianapolis Center
06:39AM 37.5697 -82.9294 207° Southwest 392 451 38,700 -960 Descending Indianapolis Center
06:40AM 37.4731 -82.9917 207° Southwest 390 449 37,800 -1,260 Descending Indianapolis Center
06:41AM 37.3783 -83.0486 206° Southwest 380 437 36,200 -2,040 Descending Indianapolis Center
06:42AM 37.2631 -83.1197 206° Southwest 395 455 33,700 -2,280 Descending Indianapolis Center
06:43AM 37.1642 -83.1797 206° Southwest 395 455 31,600 -2,160 Descending Indianapolis Center
06:44AM 37.0672 -83.2394 206° Southwest 390 449 29,400 -2,220 Descending Indianapolis Center
06:45AM 36.9703 -83.2986 206° Southwest 391 450 27,200 -2,220 Descending Indianapolis Center
06:46AM 36.8739 -83.3575 206° Southwest 387 445 25,000 -2,220 Descending Indianapolis Center
06:47AM 36.7792 -83.4139 205° Southwest 379 436 22,700 -2,280 Descending Indianapolis Center
06:48AM 36.6892 -83.4686 206° Southwest 362 417 20,400 -2,280 Descending Indianapolis Center
06:49AM 36.5997 -83.5228 206° Southwest 358 412 18,200 -2,220 Descending Indianapolis Center
06:50AM 36.5111 -83.5753 205° Southwest 354 407 16,000 -2,220 Descending Indianapolis Center
06:51AM 36.4278 -83.6258 206° Southwest 342 394 13,700 -2,280 Descending Indianapolis Center
06:51AM 36.3725 -83.6622 208° Southwest 337 388 12,200 -1,620 Descending Atlanta Center
06:52AM 36.2956 -83.6883 195° South 309 356 11,000 -1,200 Descending Atlanta Center
06:53AM 36.2017 -83.6992 185° South 304 350 9,900 -1,140 Descending Atlanta Center
06:54AM 36.1183 -83.7072 184° South 304 350 8,800 -1,260 Descending Atlanta Center
06:55AM 36.0411 -83.7203 188° South 304 350 7,400 -1,620 Descending Atlanta Center
06:56AM 35.9914 -83.7822 225° Southwest 261 300 5,600 -1,500 Descending Atlanta Center
06:57AM 35.9475 -83.8336 223° Southwest 239 275 4,400 -1,140 Descending Atlanta Center
06:58AM 35.9122 -83.8772 225° Southwest 211 243 3,400 -1,080 Descending Atlanta Center
06:59AM 35.8706 -83.9208 220° Southwest 205 236 2,300 -960 Descending Atlanta Center
07:00AM 35.8414 -83.9567 225° Southwest 179 206 1,500 -840 Descending Atlanta Center
07:02AM 35.8000 -83.9833 202° Southwest  Level FlightAware Approximate
07:09AM 35.8110 -83.9940 202° Southwest  Level Estimated